Terminal Aerodrome Forecast
Issued by NWS

Home | Current Version | Previous Version | Text Only | Print | Product List | Glossary On
Versions: 1 2 3 4 5 6 7 8 9 10 11 12 13 14
238
FTUS42 KMLB 262340
TAFLEE
TAF
KLEE 262340Z 2700/2724 10009KT P6SM SCT250
     FM270700 11002KT 5SM BR FEW030
     FM271300 12005KT P6SM FEW040 FEW250=

USA.gov is the U.S. government's official web portal to all federal, state and local government web resources and services.